Capitol Logistics 905


KMIA
Miami International Airport
Miami, Florida, US
EBLG
Liège Airport
Liege, , BE

Route Details

Aircraft Information
Primary: Boeing 747-400BCF
Backup: Boeing 777-200LRF
Route Data
Distance: 4074nm
Sched. Duration: 8h 30m
Avg. Duration: 8h 84m (+55m)
Times Flown: 9
Recm'd Route: Not Available
Planned Altitude: 32,000ft
Origin Wx: KMIA 281953Z 32008G16KT 280V360 10SM CLR 19/03 A3019 RMK AO2 SLP223 T01940028
Dest. Wx: EBLG 282020Z 19019G30KT 9999 -DZ FEW010 BKN020 04/03 Q1005 TEMPO 20020G32KT BECMG BKN008
Notes:

Financial History
Total Freight: 1,239,526lbs
Average Load: 137,725lbs/flt
Fuel Used: 1,483,305lbs
Avg. Fuel Used: 164,812lbs/flt
Fuel Expense: $1,824,465
Avg. Fuel Expense: $202,718
Avg. Fuel Cost: $1.23/lbs
Total Gross Income: $3,070,513
Pilot Pay: $1,651
Total Expenses: $332,083
Total Revenue: $896,330
Average Revenue: $341,168.16